KPIH/PIH METAR and TAF weather

Enter ICAO airport designator
Station Type Date Time Source
KPIH METAR 2022/06/27 08:53 UTC NOAA

KPIH 270853Z AUTO 18006KT 10SM CLR 11/04 A3025 RMK AO2 SLP200 T01110039 50002 TSNO


Station Type Date Time Source
KPIH Decoded METAR 2022/06/27 08:53 UTC NOAA

POCATELLO REGIONAL AIRPORT, ID, United States (KPIH) 42-55N 112-36W 1359M
Jun 27, 2022 - 04:53 AM EDT / 2022.06.27 0853 UTC
Wind: from the S (180 degrees) at 7 MPH (6 KT):0
Visibility: 10 mile(s):0
Sky conditions: clear
Temperature: 52.0 F (11.1 C)
Dew Point: 39.0 F (3.9 C)
Relative Humidity: 61%
Pressure (altimeter): 30.25 in. Hg (1024 hPa)
Pressure tendency: 0.01 inches (0.2 hPa) higher than three hours ago
ob: KPIH 270853Z AUTO 18006KT 10SM CLR 11/04 A3025 RMK AO2 SLP200 T01110039 50002 TSNO
cycle: 9

Station Type Date Time Source
KPIH TAF 2022/06/27 06:22 UTC NOAA

TAF KPIH 270520Z 2706/2806 VRB06KT P6SM SKC
FM271800 31009KT P6SM FEW150
FM280200 17009KT P6SM FEW120

Example: see airport list